Time;durP1;ratioP1;P1;durP2;ratioP2;P2;SDS_P1;SDS_P2;PMS_P1;PMS_P2;Temp;Humidity;BMP_temperature;BMP_pressure;BME280_temperature;BME280_humidity;BME280_pressure;Samples;Min_cycle;Max_cycle;Signal;HPM_P1;HPM_P2
2022/02/07 00:00:40;;;;;;;0.22;0.20;;;19.20;47.80;;;;;;6145100;29;20042;-70
2022/02/07 00:03:46;;;;;;;0.82;0.30;;;19.20;47.70;;;;;;6146342;28;20035;-70
2022/02/07 00:06:46;;;;;;;0.13;0.10;;;19.20;47.70;;;;;;6161396;28;20031;-71
2022/02/07 00:09:47;;;;;;;0.47;0.15;;;19.20;47.70;;;;;;6173362;28;20034;-70
2022/02/07 00:12:47;;;;;;;0.45;0.30;;;19.10;47.70;;;;;;6173074;28;20165;-70
2022/02/07 00:15:48;;;;;;;0.35;0.25;;;19.20;47.70;;;;;;6174384;28;20068;-70
2022/02/07 00:18:48;;;;;;;0.63;0.25;;;19.20;47.70;;;;;;6172967;28;20029;-70
2022/02/07 00:21:50;;;;;;;0.30;0.13;;;19.10;47.60;;;;;;6173327;28;20023;-71
2022/02/07 00:24:50;;;;;;;0.95;0.20;;;19.10;47.70;;;;;;6172878;28;20045;-70
2022/02/07 00:27:51;;;;;;;0.20;0.20;;;19.20;47.70;;;;;;6172652;28;20034;-70
2022/02/07 00:30:51;;;;;;;0.73;0.30;;;19.20;47.70;;;;;;6172864;28;20082;-71
2022/02/07 00:33:53;;;;;;;1.65;0.28;;;19.20;47.70;;;;;;6158883;28;20048;-70
2022/02/07 00:36:53;;;;;;;0.38;0.15;;;19.10;47.60;;;;;;6172671;28;20027;-69
2022/02/07 00:40:44;;;;;;;0.52;0.10;;;19.10;47.60;;;;;;6172821;28;20030;-70
2022/02/07 00:46:34;;;;;;;0.20;0.20;;;19.10;47.60;;;;;;6148438;29;20455;-71
2022/02/07 00:49:35;;;;;;;0.45;0.30;;;19.20;47.70;;;;;;6148604;29;20110;-71
2022/02/07 00:52:35;;;;;;;0.30;0.20;;;19.10;47.60;;;;;;6148466;29;20036;-71
2022/02/07 00:55:36;;;;;;;0.30;0.20;;;19.10;47.60;;;;;;6148142;29;20051;-70
2022/02/07 00:58:37;;;;;;;0.10;0.10;;;19.10;47.60;;;;;;6148252;29;20519;-71
2022/02/07 01:01:38;;;;;;;0.20;0.20;;;19.10;47.60;;;;;;6148378;29;20179;-70
2022/02/07 01:04:38;;;;;;;0.57;0.22;;;19.20;47.70;;;;;;6147713;29;20031;-71
2022/02/07 01:07:41;;;;;;;0.22;0.20;;;19.10;47.60;;;;;;6167513;28;20224;-70
2022/02/07 01:14:30;;;;;;;0.30;0.20;;;19.10;47.60;;;;;;6172196;28;20034;-70
2022/02/07 01:21:00;;;;;;;0.85;0.35;;;19.10;47.60;;;;;;6171754;28;20110;-69
2022/02/07 01:47:35;;;;;;;0.10;0.10;;;19.10;47.50;;;;;;6147870;29;20478;-70
2022/02/07 01:50:48;;;;;;;0.20;0.20;;;19.10;47.50;;;;;;6146630;28;20050;-70
2022/02/07 01:54:09;;;;;;;0.20;0.20;;;19.10;47.40;;;;;;6146615;29;20047;-70
2022/02/07 01:57:12;;;;;;;0.30;0.20;;;19.10;47.50;;;;;;6151689;28;20070;-70
2022/02/07 02:00:17;;;;;;;0.25;0.20;;;19.10;47.50;;;;;;6171304;28;20089;-69
2022/02/07 02:03:17;;;;;;;0.13;0.13;;;19.10;47.40;;;;;;6170601;28;20027;-70
2022/02/07 02:06:18;;;;;;;0.10;0.10;;;19.10;47.50;;;;;;6170872;28;20043;-69
2022/02/07 02:09:18;;;;;;;0.10;0.10;;;19.10;47.40;;;;;;6170378;28;20148;-70
2022/02/07 02:12:21;;;;;;;0.10;0.10;;;19.10;47.40;;;;;;6170396;28;20027;-69
2022/02/07 02:15:40;;;;;;;0.10;0.10;;;19.10;47.50;;;;;;6170289;28;20019;-70
2022/02/07 02:38:01;;;;;;;0.45;0.20;;;19.10;47.40;;;;;;6170259;28;20089;-70
2022/02/07 02:47:39;;;;;;;0.57;0.30;;;19.10;47.50;;;;;;6146048;29;20027;-69
2022/02/07 02:50:43;;;;;;;0.38;0.20;;;19.10;47.50;;;;;;6146219;29;20114;-71
2022/02/07 02:53:43;;;;;;;0.30;0.20;;;19.10;47.40;;;;;;6145703;29;20059;-72
2022/02/07 02:56:44;;;;;;;0.20;0.10;;;19.10;47.40;;;;;;6146066;29;20046;-70
2022/02/07 02:59:45;;;;;;;0.55;0.20;;;19.10;47.40;;;;;;6146038;29;20046;-71
2022/02/07 03:02:45;;;;;;;0.40;0.20;;;19.10;47.30;;;;;;6145848;29;20504;-69
2022/02/07 03:05:48;;;;;;;0.20;0.10;;;19.10;47.30;;;;;;6149592;28;20031;-69
2022/02/07 03:08:48;;;;;;;0.68;0.32;;;19.10;47.30;;;;;;6169965;28;20161;-70
2022/02/07 03:11:50;;;;;;;0.43;0.20;;;19.00;47.20;;;;;;6169638;28;20421;-70
2022/02/07 03:14:51;;;;;;;0.20;0.10;;;19.10;47.30;;;;;;6169972;28;20646;-70
2022/02/07 03:17:51;;;;;;;0.93;0.32;;;19.10;47.40;;;;;;6169587;28;20027;-69
2022/02/07 03:20:52;;;;;;;1.20;0.30;;;19.10;47.30;;;;;;6169821;28;20031;-70
2022/02/07 03:23:53;;;;;;;0.50;0.30;;;19.10;47.30;;;;;;6169396;28;20047;-70
2022/02/07 03:26:53;;;;;;;0.88;0.30;;;19.10;47.30;;;;;;6169540;28;20063;-70
2022/02/07 03:29:54;;;;;;;0.17;0.17;;;19.00;47.30;;;;;;6169196;28;20045;-71
2022/02/07 03:32:55;;;;;;;0.88;0.28;;;19.10;47.30;;;;;;6161244;28;20035;-70
2022/02/07 03:35:55;;;;;;;0.32;0.20;;;19.10;47.30;;;;;;6145578;28;20023;-71
2022/02/07 03:38:56;;;;;;;0.28;0.20;;;19.00;47.20;;;;;;6147268;28;20027;-70
2022/02/07 03:41:56;;;;;;;1.00;0.20;;;19.10;47.30;;;;;;6149802;28;20394;-70
2022/02/07 03:44:57;;;;;;;0.20;0.20;;;19.00;47.20;;;;;;6150032;29;20043;-71
2022/02/07 03:47:58;;;;;;;0.10;0.10;;;19.00;47.20;;;;;;6150349;29;20027;-70
2022/02/07 03:50:59;;;;;;;0.45;0.15;;;19.10;47.20;;;;;;6150352;29;20110;-69
2022/02/07 03:53:59;;;;;;;1.65;0.30;;;19.10;47.30;;;;;;6149309;29;20054;-70
2022/02/07 03:57:00;;;;;;;0.55;0.30;;;19.00;47.10;;;;;;6149858;29;20412;-70
2022/02/07 04:00:04;;;;;;;0.40;0.30;;;19.10;47.20;;;;;;6149229;29;20110;-71
2022/02/07 04:03:08;;;;;;;0.85;0.40;;;19.00;47.20;;;;;;6150015;29;20042;-71
2022/02/07 04:06:14;;;;;;;0.52;0.28;;;19.00;47.10;;;;;;6156690;28;20030;-70
2022/02/07 04:09:19;;;;;;;0.57;0.22;;;19.00;47.20;;;;;;6173659;28;20022;-70
2022/02/07 04:12:24;;;;;;;0.85;0.30;;;19.00;47.20;;;;;;6173456;28;20033;-70
2022/02/07 04:15:24;;;;;;;0.17;0.10;;;19.00;47.20;;;;;;6173236;28;20037;-70
2022/02/07 04:18:28;;;;;;;0.95;0.30;;;19.00;47.10;;;;;;6173383;28;20023;-69
2022/02/07 04:21:30;;;;;;;0.65;0.28;;;19.00;47.20;;;;;;6173130;28;20031;-71
2022/02/07 04:24:30;;;;;;;0.35;0.20;;;19.00;47.10;;;;;;6172639;28;20073;-70
2022/02/07 04:27:31;;;;;;;0.50;0.10;;;19.00;47.10;;;;;;6172952;28;20034;-70
2022/02/07 04:30:31;;;;;;;0.70;0.22;;;19.00;47.90;;;;;;6172548;28;20031;-71
2022/02/07 04:33:32;;;;;;;0.85;0.20;;;19.00;47.10;;;;;;6158901;28;20509;-70
2022/02/07 04:36:32;;;;;;;0.70;0.30;;;19.00;47.20;;;;;;6156590;28;20023;-70
2022/02/07 04:39:33;;;;;;;0.73;0.20;;;19.00;47.10;;;;;;6172774;28;20054;-70
2022/02/07 04:42:33;;;;;;;0.70;0.30;;;19.00;47.10;;;;;;6156590;28;20015;-70
2022/02/07 04:45:46;;;;;;;0.43;0.15;;;19.00;47.10;;;;;;6148278;29;20402;-70
2022/02/07 04:58:41;;;;;;;0.82;0.25;;;19.00;47.10;;;;;;6148957;29;20035;-70
2022/02/07 05:01:47;;;;;;;0.95;0.30;;;19.00;47.10;;;;;;6144947;29;20047;-70
2022/02/07 05:04:41;;;;;;;0.95;0.30;;;19.00;47.10;;;;;;6147346;29;20043;-70
2022/02/07 05:14:32;;;;;;;0.63;0.30;;;19.00;47.30;;;;;;6171490;28;20031;-69
2022/02/07 05:17:36;;;;;;;0.32;0.20;;;19.00;47.20;;;;;;6171982;28;20488;-69
2022/02/07 05:20:37;;;;;;;0.50;0.30;;;19.00;47.30;;;;;;6171593;28;20035;-71
2022/02/07 05:23:38;;;;;;;1.70;0.20;;;19.00;47.20;;;;;;6170747;28;20035;-71
2022/02/07 05:26:38;;;;;;;0.35;0.13;;;19.00;47.20;;;;;;6170855;28;20034;-70
2022/02/07 05:29:39;;;;;;;0.22;0.20;;;19.00;47.10;;;;;;6171533;28;20062;-70
2022/02/07 05:32:39;;;;;;;1.05;0.30;;;19.10;47.20;;;;;;6161442;28;20102;-71
2022/02/07 05:35:40;;;;;;;1.23;0.20;;;19.10;47.20;;;;;;6147431;28;20023;-71
2022/02/07 05:38:45;;;;;;;0.35;0.22;;;19.10;47.20;;;;;;6147408;28;20478;-70
2022/02/07 05:41:45;;;;;;;0.57;0.25;;;19.10;47.20;;;;;;6147152;28;20520;-71
2022/02/07 05:44:47;;;;;;;1.77;0.40;;;19.10;47.10;;;;;;6146714;29;20171;-70
2022/02/07 05:47:48;;;;;;;0.70;0.35;;;19.10;47.10;;;;;;6147507;29;20035;-70
2022/02/07 05:50:48;;;;;;;0.57;0.30;;;19.10;47.20;;;;;;6147382;29;20035;-71
2022/02/07 05:53:49;;;;;;;0.57;0.30;;;19.10;47.20;;;;;;6146527;29;20054;-70
2022/02/07 05:56:50;;;;;;;0.60;0.30;;;19.10;47.20;;;;;;6147183;29;20019;-70
2022/02/07 05:59:50;;;;;;;2.75;0.38;;;19.10;47.10;;;;;;6146711;29;20032;-70
2022/02/07 06:02:51;;;;;;;0.43;0.20;;;19.10;47.10;;;;;;6146189;28;20094;-70
2022/02/07 06:05:51;;;;;;;0.93;0.30;;;19.10;47.10;;;;;;6151303;28;20031;-70
2022/02/07 06:08:52;;;;;;;1.23;0.30;;;19.10;47.10;;;;;;6170486;28;20037;-70
2022/02/07 06:11:52;;;;;;;1.65;0.43;;;19.10;47.10;;;;;;6171061;28;20497;-70
2022/02/07 06:14:53;;;;;;;0.50;0.20;;;19.10;47.10;;;;;;6170569;28;20059;-70
2022/02/07 06:17:57;;;;;;;0.80;0.25;;;19.10;47.00;;;;;;6170586;28;20106;-70
2022/02/07 06:21:03;;;;;;;1.10;0.45;;;19.10;47.00;;;;;;6170334;28;20042;-70
2022/02/07 06:24:04;;;;;;;0.43;0.30;;;19.10;47.00;;;;;;6170221;28;20033;-70
2022/02/07 06:27:05;;;;;;;1.05;0.40;;;19.10;47.00;;;;;;6170312;28;20035;-71
2022/02/07 06:30:06;;;;;;;0.40;0.28;;;19.10;46.90;;;;;;6171187;28;20485;-70
2022/02/07 06:33:07;;;;;;;1.70;0.40;;;19.10;46.90;;;;;;6160206;28;20031;-71
2022/02/07 06:36:07;;;;;;;0.50;0.20;;;19.10;46.90;;;;;;6163439;28;20053;-71
2022/02/07 06:39:08;;;;;;;0.88;0.30;;;19.10;46.90;;;;;;6170477;28;20027;-71
2022/02/07 06:42:08;;;;;;;0.50;0.30;;;19.10;46.90;;;;;;6157415;28;20035;-70
2022/02/07 06:45:09;;;;;;;0.38;0.20;;;19.10;46.90;;;;;;6146361;29;20063;-70
2022/02/07 06:48:10;;;;;;;1.08;0.35;;;19.10;46.90;;;;;;6146207;29;20102;-70
2022/02/07 06:51:10;;;;;;;0.68;0.20;;;19.10;46.60;;;;;;6146774;29;20425;-70
2022/02/07 06:54:11;;;;;;;0.88;0.25;;;19.20;46.80;;;;;;6145401;29;20059;-70
2022/02/07 06:57:13;;;;;;;0.85;0.32;;;19.20;46.60;;;;;;6145853;29;20478;-71
2022/02/07 07:00:14;;;;;;;2.00;0.30;;;19.20;46.80;;;;;;6151659;28;20031;-70
2022/02/07 07:03:18;;;;;;;0.52;0.30;;;19.20;46.80;;;;;;6172635;28;20026;-71
2022/02/07 07:06:19;;;;;;;0.95;0.40;;;19.20;46.80;;;;;;6171990;28;20137;-69
2022/02/07 07:09:20;;;;;;;0.90;0.50;;;19.20;46.80;;;;;;6171734;28;20019;-68
2022/02/07 07:12:20;;;;;;;0.70;0.35;;;19.10;46.70;;;;;;6161411;28;20035;-69
2022/02/07 07:15:30;;;;;;;1.60;0.50;;;19.10;46.70;;;;;;6172471;28;20029;-71
2022/02/07 07:18:30;;;;;;;1.85;0.43;;;19.10;46.70;;;;;;6175971;28;20034;-70
2022/02/07 07:21:32;;;;;;;1.00;0.40;;;19.20;46.80;;;;;;6169133;28;20038;-71
2022/02/07 07:24:36;;;;;;;3.80;0.70;;;19.10;46.80;;;;;;6176752;28;20035;-70
2022/02/07 07:27:47;;;;;;;1.23;0.43;;;19.10;46.70;;;;;;6153113;28;20082;-71
2022/02/07 07:30:53;;;;;;;3.42;0.50;;;19.10;46.80;;;;;;6174769;28;20037;-70
2022/02/07 07:33:54;;;;;;;1.13;0.35;;;19.10;46.90;;;;;;6160530;28;20034;-69
2022/02/07 07:36:55;;;;;;;0.80;0.38;;;19.10;47.00;;;;;;6175644;28;20035;-70
2022/02/07 07:39:56;;;;;;;2.35;0.60;;;19.10;47.10;;;;;;6174553;28;20027;-69
2022/02/07 07:42:56;;;;;;;1.20;0.43;;;19.10;47.30;;;;;;6155813;28;20019;-70
2022/02/07 07:46:03;;;;;;;2.20;0.68;;;19.20;47.30;;;;;;6148123;28;20104;-69
2022/02/07 07:49:16;;;;;;;2.60;0.63;;;19.20;46.60;;;;;;6159124;28;20038;-70
2022/02/07 07:52:29;;;;;;;2.05;0.60;;;19.20;46.80;;;;;;6175176;28;20082;-68
2022/02/07 08:02:09;;;;;;;5.55;0.50;;;19.20;47.00;;;;;;6150179;28;20039;-70
2022/02/07 08:05:23;;;;;;;1.02;0.60;;;19.20;47.00;;;;;;6150587;28;20035;-70
2022/02/07 08:08:30;;;;;;;1.17;0.50;;;19.20;47.10;;;;;;6172966;28;20027;-70
2022/02/07 08:11:32;;;;;;;1.38;0.77;;;19.20;47.10;;;;;;6174812;28;20023;-70
2022/02/07 08:14:35;;;;;;;3.67;0.57;;;19.20;47.10;;;;;;6174726;28;20027;-70
2022/02/07 08:17:36;;;;;;;0.98;0.50;;;19.20;47.20;;;;;;6174275;28;20031;-69
2022/02/07 08:20:36;;;;;;;1.42;0.40;;;19.20;47.20;;;;;;6172457;28;20049;-70
2022/02/07 08:23:39;;;;;;;2.70;0.50;;;19.20;47.20;;;;;;6173037;28;20027;-68
2022/02/07 08:26:40;;;;;;;2.22;0.60;;;19.20;47.20;;;;;;6173465;28;20167;-69
2022/02/07 08:29:41;;;;;;;11.68;0.60;;;19.20;47.30;;;;;;6174637;28;20055;-68
2022/02/07 08:32:41;;;;;;;5.28;0.85;;;19.20;47.30;;;;;;6173902;28;20097;-70
2022/02/07 08:35:42;;;;;;;7.70;1.73;;;19.20;46.80;;;;;;6174005;28;20035;-68
2022/02/07 08:38:43;;;;;;;12.73;1.80;;;19.20;44.90;;;;;;6173793;28;20114;-69
2022/02/07 08:41:44;;;;;;;8.05;1.55;;;19.10;43.80;;;;;;6164406;28;20027;-67
2022/02/07 08:44:46;;;;;;;8.40;1.52;;;19.10;43.90;;;;;;6149747;29;20047;-69
2022/02/07 08:47:46;;;;;;;13.20;1.85;;;19.10;42.90;;;;;;6150032;29;20031;-68
2022/02/07 08:50:51;;;;;;;6.93;1.73;;;19.10;42.50;;;;;;6150143;29;20521;-68
2022/02/07 08:53:52;;;;;;;13.65;2.00;;;19.10;42.10;;;;;;6149747;29;20495;-68
2022/02/07 09:07:08;;;;;;;6.82;1.88;;;19.00;41.80;;;;;;6157001;28;20418;-68
2022/02/07 09:10:08;;;;;;;12.55;3.00;;;19.00;41.50;;;;;;6170512;28;20057;-67
2022/02/07 09:13:09;;;;;;;11.00;2.97;;;19.00;40.40;;;;;;6172381;28;20027;-67
2022/02/07 09:19:16;;;;;;;11.70;2.80;;;19.00;40.90;;;;;;6172118;28;20815;-68
2022/02/07 09:22:16;;;;;;;9.93;3.08;;;19.00;41.10;;;;;;6168380;28;20031;-69
2022/02/07 09:25:17;;;;;;;7.10;2.63;;;19.00;41.50;;;;;;6146474;28;20036;-69
2022/02/07 09:28:19;;;;;;;7.50;2.45;;;19.00;41.80;;;;;;6147838;28;20035;-68
2022/02/07 09:31:21;;;;;;;6.88;2.38;;;19.10;42.10;;;;;;6171131;28;20129;-66
2022/02/07 09:34:21;;;;;;;6.55;2.35;;;19.10;42.40;;;;;;6170950;28;20398;-68
2022/02/07 09:37:22;;;;;;;5.53;2.25;;;19.10;42.80;;;;;;6168408;28;20030;-67
2022/02/07 09:40:23;;;;;;;4.90;2.15;;;19.10;43.10;;;;;;6172454;28;20030;-69
2022/02/07 09:43:31;;;;;;;9.35;2.92;;;19.10;43.40;;;;;;6148556;28;20020;-68
2022/02/07 09:46:43;;;;;;;8.32;2.22;;;19.20;43.60;;;;;;6147118;29;20147;-68
2022/02/07 09:49:45;;;;;;;7.82;2.20;;;19.20;43.80;;;;;;6146188;29;20027;-69
2022/02/07 09:52:45;;;;;;;16.48;2.20;;;19.10;43.60;;;;;;6146745;29;20027;-69
2022/02/07 09:55:46;;;;;;;6.50;1.90;;;19.10;43.70;;;;;;6146647;29;20062;-68
2022/02/07 09:58:50;;;;;;;9.70;2.08;;;19.10;43.80;;;;;;6146399;29;20062;-69
2022/02/07 10:01:54;;;;;;;9.88;1.83;;;19.10;43.90;;;;;;6146429;29;20386;-69
2022/02/07 10:04:57;;;;;;;7.93;2.35;;;19.10;44.00;;;;;;6162323;28;20047;-68
2022/02/07 10:08:13;;;;;;;12.25;2.20;;;19.10;43.60;;;;;;6169437;28;20042;-66
2022/02/07 10:14:26;;;;;;;7.85;2.53;;;19.10;43.90;;;;;;6170804;28;20036;-67
2022/02/07 10:17:41;;;;;;;4.82;1.90;;;19.10;43.40;;;;;;6169638;28;20109;-67
2022/02/07 10:21:29;;;;;;;10.90;2.35;;;19.10;43.50;;;;;;6170740;28;20050;-68
2022/02/07 10:34:34;;;;;;;9.02;2.08;;;19.10;43.80;;;;;;6146353;29;20043;-69
2022/02/07 10:44:59;;;;;;;6.20;1.73;;;19.10;44.30;;;;;;6169946;28;20046;-69
2022/02/07 10:48:04;;;;;;;7.55;1.98;;;19.20;44.40;;;;;;6169700;28;20030;-69
2022/02/07 10:51:18;;;;;;;7.65;1.60;;;19.20;44.40;;;;;;6169859;28;20026;-68
2022/02/07 10:54:18;;;;;;;6.90;2.10;;;19.20;44.50;;;;;;6169115;28;20054;-69
2022/02/07 10:57:20;;;;;;;5.35;1.70;;;19.20;44.50;;;;;;6170073;28;20109;-69
2022/02/07 11:00:27;;;;;;;5.82;1.83;;;19.20;44.80;;;;;;6169955;28;20023;-68
2022/02/07 11:03:32;;;;;;;5.53;2.00;;;19.20;45.10;;;;;;6169337;28;20110;-69
2022/02/07 11:06:35;;;;;;;14.35;1.95;;;19.20;44.60;;;;;;6169398;28;20390;-68
2022/02/07 11:09:59;;;;;;;7.95;1.80;;;19.20;44.10;;;;;;6169258;28;20085;-69
2022/02/07 11:16:22;;;;;;;7.53;1.73;;;19.20;44.10;;;;;;6169922;28;20046;-69
2022/02/07 11:22:55;;;;;;;8.38;1.75;;;19.10;43.90;;;;;;6169784;28;20046;-68
2022/02/07 11:29:00;;;;;;;11.32;2.00;;;19.20;44.00;;;;;;6170167;28;20524;-68
2022/02/07 11:32:01;;;;;;;7.28;1.60;;;19.20;44.10;;;;;;6168100;28;20019;-67
2022/02/07 11:35:06;;;;;;;7.20;1.65;;;19.20;44.00;;;;;;6145234;28;20534;-69
2022/02/07 11:38:07;;;;;;;4.82;1.88;;;19.20;44.20;;;;;;6145276;28;20039;-68
2022/02/07 11:41:08;;;;;;;6.05;2.00;;;19.20;44.20;;;;;;6151751;28;20038;-69
2022/02/07 11:44:09;;;;;;;4.95;1.83;;;19.20;44.00;;;;;;6183122;28;20532;-68
2022/02/07 11:47:30;;;;;;;5.15;1.60;;;19.20;44.30;;;;;;6168887;28;20019;-68
2022/02/07 11:50:33;;;;;;;6.60;1.65;;;19.20;44.40;;;;;;6166999;28;20151;-67
2022/02/07 11:53:41;;;;;;;8.65;2.22;;;19.20;45.30;;;;;;6169647;28;20039;-69
2022/02/07 11:56:46;;;;;;;7.35;1.75;;;19.20;44.80;;;;;;6168308;28;20050;-68
2022/02/07 11:59:57;;;;;;;28.08;2.35;;;19.30;44.90;;;;;;6171499;28;20061;-68
2022/02/07 12:03:04;;;;;;;12.02;1.83;;;19.40;44.50;;;;;;6174174;28;20031;-70
2022/02/07 12:06:07;;;;;;;13.25;1.95;;;19.40;44.40;;;;;;6173541;28;20035;-67
2022/02/07 12:09:23;;;;;;;20.13;2.45;;;19.50;44.20;;;;;;6174599;28;20042;-69
2022/02/07 12:12:30;;;;;;;15.43;2.47;;;19.50;45.60;;;;;;6174035;28;20023;-68
2022/02/07 12:15:44;;;;;;;8.52;2.60;;;19.50;44.80;;;;;;6174173;28;20026;-66
2022/02/07 12:19:03;;;;;;;6.72;2.03;;;19.60;44.30;;;;;;6165521;28;20394;-68
2022/02/07 12:22:18;;;;;;;8.35;2.15;;;19.60;44.00;;;;;;6169876;28;20030;-67
2022/02/07 12:25:21;;;;;;;8.18;1.92;;;19.70;44.00;;;;;;6154763;28;20563;-67
2022/02/07 12:28:32;;;;;;;9.02;2.20;;;19.60;44.80;;;;;;6148840;28;20037;-68
2022/02/07 12:31:32;;;;;;;7.30;1.63;;;19.60;44.50;;;;;;6154429;28;20045;-68
2022/02/07 12:34:33;;;;;;;5.57;1.80;;;19.60;45.10;;;;;;6172406;28;20067;-69
2022/02/07 12:37:37;;;;;;;6.75;1.80;;;19.50;45.10;;;;;;6173622;28;20032;-69
2022/02/07 12:40:38;;;;;;;8.80;1.70;;;19.50;45.00;;;;;;6173220;28;20027;-68
2022/02/07 12:43:40;;;;;;;5.68;1.85;;;19.50;44.80;;;;;;6149346;29;20027;-69
2022/02/07 12:46:45;;;;;;;11.60;2.90;;;19.50;44.30;;;;;;6149585;29;20426;-69
2022/02/07 12:49:49;;;;;;;9.10;2.80;;;19.50;42.70;;;;;;6156850;28;20030;-68
2022/02/07 12:52:55;;;;;;;7.15;2.35;;;19.50;42.70;;;;;;6172901;28;20035;-69
2022/02/07 12:55:58;;;;;;;9.07;2.78;;;19.50;43.40;;;;;;6172897;28;20050;-68
2022/02/07 12:59:01;;;;;;;9.02;2.63;;;19.50;43.30;;;;;;6172647;28;20035;-67
2022/02/07 13:02:01;;;;;;;8.57;2.35;;;19.50;43.70;;;;;;6172973;28;20039;-67
2022/02/07 13:05:02;;;;;;;16.27;2.50;;;19.70;43.40;;;;;;6172720;28;20047;-66
2022/02/07 13:08:03;;;;;;;10.77;2.72;;;19.70;43.90;;;;;;6172483;28;20026;-66
2022/02/07 13:11:12;;;;;;;11.52;2.17;;;19.80;42.40;;;;;;6172408;28;20033;-68
2022/02/07 13:14:16;;;;;;;8.32;2.80;;;19.80;43.90;;;;;;6172518;28;20050;-68
2022/02/07 13:17:22;;;;;;;13.25;3.28;;;19.70;43.70;;;;;;6170937;28;20030;-67
2022/02/07 13:20:24;;;;;;;9.85;3.08;;;19.70;42.70;;;;;;6172561;28;20764;-67
2022/02/07 13:23:29;;;;;;;9.20;2.50;;;19.80;42.40;;;;;;6172801;28;20026;-68
2022/02/07 13:26:30;;;;;;;12.43;2.78;;;19.80;41.70;;;;;;6172797;28;20093;-66
2022/02/07 13:29:41;;;;;;;18.13;3.83;;;19.90;42.40;;;;;;6172554;28;20054;-67
2022/02/07 13:32:42;;;;;;;12.90;3.65;;;19.90;42.30;;;;;;6171920;28;20089;-66
2022/02/07 13:35:46;;;;;;;15.70;3.28;;;20.00;41.30;;;;;;6172528;28;20089;-68
2022/02/07 13:38:46;;;;;;;9.75;2.72;;;20.10;41.40;;;;;;6172183;28;20058;-66
2022/02/07 13:42:05;;;;;;;15.57;3.35;;;20.10;41.70;;;;;;6162094;28;20058;-68
2022/02/07 13:45:10;;;;;;;21.67;4.18;;;20.10;42.50;;;;;;6148470;29;20478;-68
2022/02/07 13:48:14;;;;;;;;;;;20.00;43.10;;;;;;6148387;29;20023;-68
2022/02/07 13:51:15;;;;;;;10.98;3.33;;;19.90;42.60;;;;;;6148402;28;20389;-67
2022/02/07 13:54:27;;;;;;;14.85;3.75;;;19.90;42.30;;;;;;6147501;29;20059;-67
2022/02/07 13:57:28;;;;;;;15.52;3.55;;;19.90;42.30;;;;;;6147818;29;20033;-68
2022/02/07 14:00:45;;;;;;;24.70;4.18;;;20.00;43.10;;;;;;6147042;29;20750;-67
2022/02/07 14:03:48;;;;;;;18.92;3.88;;;19.90;42.70;;;;;;6146653;29;20512;-67
2022/02/07 14:07:11;;;;;;;20.88;4.15;;;19.90;43.20;;;;;;6159093;28;20481;-68
2022/02/07 14:10:20;;;;;;;11.98;3.60;;;19.90;42.90;;;;;;6170287;28;20034;-68
2022/02/07 14:13:22;;;;;;;19.58;3.72;;;19.80;43.40;;;;;;6171535;28;20558;-68
2022/02/07 14:16:26;;;;;;;13.95;3.63;;;19.80;43.20;;;;;;6160903;28;20026;-69
2022/02/07 14:19:43;;;;;;;11.77;3.10;;;19.70;43.00;;;;;;6171334;28;20085;-68
2022/02/07 14:22:43;;;;;;;11.55;3.60;;;19.70;43.50;;;;;;6153041;28;20038;-69
2022/02/07 14:25:48;;;;;;;10.50;3.05;;;19.70;43.30;;;;;;6190224;28;20034;-68
2022/02/07 14:28:53;;;;;;;7.72;1.92;;;19.70;43.70;;;;;;6173081;28;20041;-69
2022/02/07 14:31:54;;;;;;;14.65;2.92;;;19.70;43.80;;;;;;6170752;28;20031;-68
2022/02/07 14:34:54;;;;;;;8.32;3.03;;;19.70;43.90;;;;;;6170264;28;20019;-69
2022/02/07 14:37:58;;;;;;;6.43;2.38;;;19.60;44.30;;;;;;6170749;28;20564;-68
2022/02/07 14:40:59;;;;;;;12.10;3.17;;;19.60;44.10;;;;;;6167841;28;20034;-68
2022/02/07 14:44:02;;;;;;;10.18;2.78;;;19.60;44.00;;;;;;6146995;29;20043;-68
2022/02/07 14:47:05;;;;;;;9.48;2.75;;;19.50;44.10;;;;;;6146756;29;20036;-68
2022/02/07 14:50:06;;;;;;;9.65;2.70;;;19.60;44.40;;;;;;6147209;29;20035;-69
2022/02/07 14:53:08;;;;;;;9.45;2.70;;;19.50;44.50;;;;;;6146498;29;20548;-68
2022/02/07 14:56:09;;;;;;;6.35;2.70;;;19.50;44.40;;;;;;6146893;29;20088;-68
2022/02/07 14:59:15;;;;;;;7.13;2.75;;;19.50;44.50;;;;;;6146019;29;20038;-68
2022/02/07 15:02:18;;;;;;;8.88;2.90;;;19.50;44.30;;;;;;6145101;29;20035;-69
2022/02/07 15:05:19;;;;;;;7.53;2.55;;;19.50;44.40;;;;;;6147184;28;20268;-68
2022/02/07 15:08:21;;;;;;;8.82;2.92;;;19.50;44.10;;;;;;6170301;28;20038;-68
2022/02/07 15:11:22;;;;;;;7.40;2.35;;;19.50;44.50;;;;;;6170647;28;20029;-68
2022/02/07 15:14:23;;;;;;;7.07;2.60;;;19.50;44.60;;;;;;6170366;28;20023;-69
2022/02/07 15:17:28;;;;;;;6.00;2.25;;;19.50;44.70;;;;;;6170200;28;20023;-69
2022/02/07 15:20:29;;;;;;;5.78;2.17;;;19.40;44.60;;;;;;6170452;28;20026;-68
2022/02/07 15:23:31;;;;;;;8.10;2.40;;;19.40;44.70;;;;;;6170438;28;20022;-68
2022/02/07 15:26:31;;;;;;;8.10;2.30;;;19.40;44.50;;;;;;6170000;28;20179;-68
2022/02/07 15:29:32;;;;;;;7.60;2.40;;;19.40;44.60;;;;;;6170209;28;20023;-69
2022/02/07 15:32:38;;;;;;;5.50;2.33;;;19.40;44.70;;;;;;6169449;28;20089;-69
2022/02/07 15:35:41;;;;;;;4.90;1.83;;;19.40;44.60;;;;;;6175164;28;20113;-69
2022/02/07 15:38:41;;;;;;;6.60;2.30;;;19.40;44.70;;;;;;6175029;28;20023;-69
2022/02/07 15:41:44;;;;;;;5.85;2.40;;;19.40;44.80;;;;;;6166029;28;20038;-69
2022/02/07 15:44:46;;;;;;;4.75;2.17;;;19.40;44.80;;;;;;6151151;29;20046;-69
2022/02/07 15:47:47;;;;;;;8.32;2.47;;;19.40;44.70;;;;;;6150423;29;20510;-69
2022/02/07 15:50:47;;;;;;;5.72;2.25;;;19.40;44.80;;;;;;6151144;29;20062;-68
2022/02/07 15:53:48;;;;;;;7.63;2.47;;;19.40;44.80;;;;;;6150473;29;20043;-68
2022/02/07 15:56:49;;;;;;;4.28;2.17;;;19.40;44.80;;;;;;6150693;29;20091;-68
2022/02/07 15:59:49;;;;;;;6.78;2.00;;;19.40;44.90;;;;;;6150706;29;20038;-68
2022/02/07 16:02:51;;;;;;;4.30;1.73;;;19.40;44.90;;;;;;6149931;29;20110;-68
2022/02/07 16:05:52;;;;;;;4.25;1.63;;;19.40;44.90;;;;;;6154580;28;20122;-68
2022/02/07 16:08:52;;;;;;;5.75;2.30;;;19.40;44.90;;;;;;6174134;28;20374;-68
2022/02/07 16:11:55;;;;;;;5.72;2.35;;;19.40;44.80;;;;;;6174070;28;20548;-69
2022/02/07 16:14:56;;;;;;;4.90;1.92;;;19.30;44.90;;;;;;6174306;28;20059;-68
2022/02/07 16:17:58;;;;;;;4.25;1.88;;;19.40;44.90;;;;;;6173785;28;20102;-69
2022/02/07 16:20:59;;;;;;;4.07;1.52;;;19.40;44.70;;;;;;6174342;28;20537;-69
2022/02/07 16:23:59;;;;;;;4.18;1.60;;;19.30;44.80;;;;;;6154144;28;20035;-69
2022/02/07 16:27:00;;;;;;;5.70;1.58;;;19.30;44.90;;;;;;6148945;28;20442;-69
2022/02/07 16:30:01;;;;;;;5.50;2.08;;;19.30;44.70;;;;;;6150085;28;20134;-69
2022/02/07 16:33:02;;;;;;;4.88;2.15;;;19.30;44.90;;;;;;6166905;28;20359;-68
2022/02/07 16:36:05;;;;;;;4.03;1.70;;;19.30;44.80;;;;;;6173898;28;20033;-68
2022/02/07 16:39:06;;;;;;;5.78;2.10;;;19.30;44.90;;;;;;6174132;28;20074;-69
2022/02/07 16:42:07;;;;;;;3.60;1.38;;;19.30;44.80;;;;;;6160858;28;20030;-68
2022/02/07 16:45:20;;;;;;;4.65;1.70;;;19.30;45.40;;;;;;6149277;28;20072;-69
2022/02/07 16:48:22;;;;;;;4.07;1.73;;;19.30;45.00;;;;;;6149352;29;20027;-68
2022/02/07 16:51:23;;;;;;;10.90;2.53;;;19.30;45.00;;;;;;6149859;29;20106;-67
2022/02/07 16:54:25;;;;;;;9.05;3.15;;;19.20;43.90;;;;;;6149119;29;20051;-69
2022/02/07 16:57:25;;;;;;;14.95;3.17;;;19.20;41.50;;;;;;6149405;29;20502;-69
2022/02/07 17:00:26;;;;;;;11.52;3.33;;;19.20;39.80;;;;;;6149394;29;20027;-68
2022/02/07 17:03:26;;;;;;;16.27;4.25;;;19.20;39.50;;;;;;6149501;29;20106;-69
2022/02/07 17:06:27;;;;;;;17.63;3.15;;;19.20;38.90;;;;;;6168162;28;20038;-69
2022/02/07 17:09:28;;;;;;;14.15;3.83;;;19.10;38.60;;;;;;6173062;28;20031;-68
2022/02/07 17:12:28;;;;;;;18.40;3.88;;;19.10;37.90;;;;;;6172236;28;20029;-69
2022/02/07 17:15:29;;;;;;;18.48;4.03;;;19.10;37.70;;;;;;6170516;28;20030;-68
2022/02/07 17:18:30;;;;;;;16.70;4.10;;;19.10;37.60;;;;;;6170224;28;20611;-69
2022/02/07 17:21:31;;;;;;;16.15;4.10;;;19.10;37.50;;;;;;6170388;28;20060;-69
2022/02/07 17:24:32;;;;;;;14.85;3.42;;;19.10;37.40;;;;;;6170331;28;20034;-69
2022/02/07 17:27:32;;;;;;;17.60;3.90;;;19.10;37.10;;;;;;6170680;28;20027;-69
2022/02/07 17:30:35;;;;;;;15.68;3.97;;;19.00;37.20;;;;;;6170681;28;20034;-69
2022/02/07 17:33:36;;;;;;;13.35;3.45;;;19.00;36.70;;;;;;6169845;28;20030;-69
2022/02/07 17:36:36;;;;;;;15.48;3.90;;;19.00;36.80;;;;;;6170553;28;20023;-68
2022/02/07 17:39:37;;;;;;;19.08;4.38;;;19.00;36.50;;;;;;6170097;28;20031;-68
2022/02/07 17:42:41;;;;;;;15.55;3.75;;;19.00;36.20;;;;;;6153027;28;20077;-68
2022/02/07 17:45:42;;;;;;;14.88;3.75;;;19.00;36.30;;;;;;6145237;29;20398;-68
2022/02/07 17:48:43;;;;;;;16.02;3.58;;;19.00;36.80;;;;;;6145033;29;20034;-68
2022/02/07 17:51:45;;;;;;;18.15;3.58;;;19.00;37.10;;;;;;6145808;29;20078;-68
2022/02/07 17:54:45;;;;;;;15.10;3.40;;;19.00;37.50;;;;;;6145823;29;20084;-68
2022/02/07 17:57:47;;;;;;;16.67;3.50;;;19.00;37.90;;;;;;6144696;28;20088;-68